Terminal Aerodrome Forecast
Issued by NWS

Home | Current Version | Previous Version | Text Only | Print | Product List | Glossary On
Versions: 1 2 3 4 5 6 7 8 9 10 11 12 13 14
000
FTUS44 KLZK 302338
TAFADF
TAF
KADF 302338Z 0100/0124 26003KT P6SM FEW250
     FM010200 00000KT P6SM FEW250
      TEMPO 0111/0113 3SM BR
     FM011600 25004KT P6SM SCT250=

USA.gov is the U.S. government's official web portal to all federal, state and local government web resources and services.